Time;durP1;ratioP1;P1;durP2;ratioP2;P2;SDS_P1;SDS_P2;PMS_P1;PMS_P2;Temp;Humidity;BMP_temperature;BMP_pressure;BME280_temperature;BME280_humidity;BME280_pressure;Samples;Min_cycle;Max_cycle;Signal;HPM_P1;HPM_P2
2022/12/30 00:01:21;;;;;;;6.45;2.05;;;;;;;5.28;100.00;100936.81;5058966;28;20033;-78
2022/12/30 00:03:47;;;;;;;7.60;1.92;;;;;;;5.25;100.00;100939.78;5057206;28;20045;-78
2022/12/30 00:06:17;;;;;;;7.57;1.63;;;;;;;5.17;100.00;100923.91;5056526;28;20033;-78
2022/12/30 00:08:47;;;;;;;7.88;2.00;;;;;;;5.22;100.00;100932.19;5061363;28;20435;-78
2022/12/30 00:11:18;;;;;;;10.70;2.47;;;;;;;5.23;100.00;100937.28;5056850;28;20387;-78
2022/12/30 00:33:25;;;;;;;8.15;1.83;;;;;;;5.12;100.00;100939.41;5055454;28;20511;-78
2022/12/30 00:35:51;;;;;;;12.15;2.85;;;;;;;5.08;100.00;100938.88;5040174;28;20033;-78
2022/12/30 00:38:16;;;;;;;4.38;1.85;;;;;;;5.08;100.00;100944.16;5041962;28;20039;-78
2022/12/30 00:43:07;;;;;;;8.10;3.08;;;;;;;5.07;100.00;100936.41;5054009;28;20444;-78
2022/12/30 00:43:27;;;;;;;8.20;3.55;;;;;;;5.10;100.00;100939.56;5057214;28;20534;-78
2022/12/30 00:45:53;;;;;;;10.10;2.92;;;;;;;5.09;100.00;100937.91;5038620;28;20057;-79
2022/12/30 00:56:31;;;;;;;9.45;1.98;;;;;;;5.07;100.00;100939.06;5053185;28;20099;-78
2022/12/30 00:58:57;;;;;;;4.65;2.17;;;;;;;5.01;100.00;100938.69;5058459;28;20057;-78
2022/12/30 01:01:22;;;;;;;8.82;3.13;;;;;;;5.07;100.00;100953.09;5047003;28;20065;-78
2022/12/30 01:03:48;;;;;;;9.45;2.35;;;;;;;5.03;100.00;100942.00;5053241;28;20118;-78
2022/12/30 01:06:13;;;;;;;13.30;3.67;;;;;;;5.00;100.00;100946.78;5042088;28;20035;-78
2022/12/30 01:08:38;;;;;;;11.43;1.85;;;;;;;5.01;100.00;100949.28;5043375;28;20083;-78
2022/12/30 01:11:08;;;;;;;4.80;2.22;;;;;;;4.94;100.00;100948.22;5053099;28;20025;-78
2022/12/30 01:13:35;;;;;;;8.40;2.33;;;;;;;4.96;100.00;100951.56;5064844;28;20032;-78
2022/12/30 01:16:12;;;;;;;7.18;1.85;;;;;;;4.96;100.00;100962.13;5054109;28;20060;-78
2022/12/30 01:18:38;;;;;;;13.30;2.67;;;;;;;4.94;100.00;100964.09;5056587;28;20418;-78
2022/12/30 01:21:04;;;;;;;14.98;2.22;;;;;;;4.89;100.00;100961.09;5059606;28;20091;-78
2022/12/30 01:23:30;;;;;;;12.70;4.07;;;;;;;4.88;100.00;100966.53;5063296;28;20021;-78
2022/12/30 01:25:55;;;;;;;8.30;2.45;;;;;;;4.91;100.00;100969.69;5043108;28;20206;-78
2022/12/30 01:28:20;;;;;;;11.27;2.60;;;;;;;4.90;100.00;100973.34;5039155;28;20033;-78
2022/12/30 01:30:46;;;;;;;5.95;1.90;;;;;;;4.88;100.00;100980.59;5050833;28;20040;-78
2022/12/30 01:33:11;;;;;;;21.98;4.85;;;;;;;4.86;100.00;100979.09;5041197;28;20068;-78
2022/12/30 01:35:37;;;;;;;7.03;1.65;;;;;;;4.80;100.00;100969.97;5055389;28;20043;-78
2022/12/30 01:38:02;;;;;;;10.25;2.78;;;;;;;4.84;100.00;100979.22;5056155;28;20061;-78
2022/12/30 01:40:27;;;;;;;5.50;2.28;;;;;;;4.81;100.00;100983.00;5056326;28;20146;-79
2022/12/30 01:42:53;;;;;;;7.75;2.20;;;;;;;4.79;100.00;100989.44;5050807;28;20032;-78
2022/12/30 01:45:25;;;;;;;8.90;1.98;;;;;;;4.73;100.00;100976.84;5060081;28;20035;-78
2022/12/30 01:48:00;;;;;;;8.15;4.18;;;;;;;4.73;100.00;100982.13;5040902;28;20334;-78
2022/12/30 01:50:52;;;;;;;8.75;2.30;;;;;;;4.74;100.00;100987.28;5055743;28;20035;-78
2022/12/30 01:53:22;;;;;;;11.98;3.20;;;;;;;4.74;100.00;100982.00;5055251;28;20575;-78
2022/12/30 01:55:59;;;;;;;13.02;2.63;;;;;;;4.76;100.00;100992.38;5062861;28;20048;-78
2022/12/30 01:58:36;;;;;;;11.95;2.97;;;;;;;4.72;100.00;101002.44;5053295;28;20494;-78
2022/12/30 02:01:01;;;;;;;7.75;2.17;;;;;;;4.67;100.00;100993.34;5057751;28;20032;-78
2022/12/30 02:03:34;;;;;;;12.02;2.42;;;;;;;4.74;100.00;101008.41;5040407;28;20029;-78
2022/12/30 02:06:01;;;;;;;10.77;2.50;;;;;;;4.73;100.00;101012.03;5054302;28;20123;-78
2022/12/30 02:08:28;;;;;;;7.95;2.22;;;;;;;4.69;100.00;101015.97;5055652;28;20737;-79
2022/12/30 02:10:55;;;;;;;9.07;2.03;;;;;;;4.70;100.00;101011.50;5053435;28;20070;-78
2022/12/30 02:13:21;;;;;;;6.35;2.33;;;;;;;4.69;100.00;101015.97;5059795;28;20036;-78
2022/12/30 02:15:52;;;;;;;7.63;2.80;;;;;;;4.68;100.00;101005.53;5060334;28;20036;-78
2022/12/30 02:18:32;;;;;;;12.50;2.72;;;;;;;4.65;100.00;100998.75;5061241;28;20032;-78
2022/12/30 02:21:35;;;;;;;7.25;1.73;;;;;;;4.65;100.00;101001.41;5058406;28;20032;-78
2022/12/30 02:24:26;;;;;;;12.25;4.88;;;;;;;4.62;100.00;100993.78;5063397;28;20036;-78
2022/12/30 02:27:10;;;;;;;9.02;1.90;;;;;;;4.61;100.00;100994.75;5015021;28;20045;-78
2022/12/30 02:29:44;;;;;;;12.13;1.60;;;;;;;4.59;100.00;100992.28;5057993;28;20420;-78
2022/12/30 02:32:21;;;;;;;14.70;2.67;;;;;;;4.57;100.00;100990.78;5051669;28;20126;-78
2022/12/30 02:35:02;;;;;;;6.15;2.00;;;;;;;4.54;100.00;100978.72;5059458;28;20482;-79
2022/12/30 02:37:55;;;;;;;5.43;2.25;;;;;;;4.46;100.00;100972.53;5051313;28;20059;-78
2022/12/30 02:46:39;;;;;;;10.35;2.05;;;;;;;4.28;100.00;100967.28;5049852;28;20083;-78
2022/12/30 02:49:06;;;;;;;9.38;2.53;;;;;;;4.17;100.00;100963.06;5055470;28;20093;-78
2022/12/30 02:54:17;;;;;;;9.88;4.03;;;;;;;4.10;100.00;100954.09;5059787;28;20403;-78
2022/12/30 02:56:47;;;;;;;7.55;2.80;;;;;;;4.05;100.00;100964.28;5056443;28;20033;-78
2022/12/30 03:05:02;;;;;;;11.02;3.40;;;;;;;3.93;100.00;100950.50;5058607;28;20052;-78
2022/12/30 03:07:36;;;;;;;20.70;6.13;;;;;;;3.91;100.00;100952.44;5061397;28;20027;-78
2022/12/30 03:13:15;;;;;;;;;;;;;;;3.86;100.00;100952.91;5064477;28;20032;-78
2022/12/30 03:15:49;;;;;;;7.70;2.00;;;;;;;3.82;100.00;100948.06;5061236;28;19916;-79
2022/12/30 03:18:15;;;;;;;13.73;3.45;;;;;;;3.79;100.00;100943.09;5060677;28;20020;-79
2022/12/30 03:20:44;;;;;;;9.73;3.20;;;;;;;3.71;100.00;100936.75;5059066;28;20040;-79
2022/12/30 03:28:47;;;;;;;11.63;3.97;;;;;;;3.63;100.00;100931.41;5059013;28;20039;-79
2022/12/30 03:31:14;;;;;;;16.25;4.25;;;;;;;3.62;100.00;100932.38;5040878;28;20468;-79
2022/12/30 03:33:40;;;;;;;8.55;2.95;;;;;;;3.60;100.00;100931.69;5059155;28;20033;-78
2022/12/30 03:36:26;;;;;;;9.38;2.67;;;;;;;3.57;100.00;100931.19;5064139;28;20056;-79
2022/12/30 03:38:59;;;;;;;9.63;2.75;;;;;;;3.49;100.00;100929.28;5065224;28;20024;-78
2022/12/30 03:41:25;;;;;;;15.65;2.78;;;;;;;3.55;100.00;100943.69;5062348;28;20133;-79
2022/12/30 03:43:52;;;;;;;7.22;2.05;;;;;;;3.49;100.00;100940.66;5062599;28;20593;-79
2022/12/30 03:46:25;;;;;;;9.20;2.40;;;;;;;3.50;100.00;100942.31;5061184;28;20035;-79
2022/12/30 03:48:50;;;;;;;8.07;3.13;;;;;;;3.49;100.00;100948.56;5063134;28;20123;-79
2022/12/30 03:51:15;;;;;;;10.35;2.42;;;;;;;3.45;100.00;100943.72;5060969;28;20204;-78
2022/12/30 03:53:41;;;;;;;7.80;2.45;;;;;;;3.45;100.00;100944.53;5063245;28;20036;-78
2022/12/30 03:56:06;;;;;;;11.45;2.30;;;;;;;3.45;100.00;100955.09;5061360;28;20038;-78
2022/12/30 03:58:31;;;;;;;10.20;2.20;;;;;;;3.44;100.00;100945.53;5064737;28;20154;-78
2022/12/30 04:00:57;;;;;;;7.45;3.38;;;;;;;3.44;100.00;100947.34;5062263;28;20468;-78
2022/12/30 04:03:22;;;;;;;11.27;3.15;;;;;;;3.38;100.00;100940.00;5062767;28;20086;-78
2022/12/30 04:05:53;;;;;;;8.10;3.53;;;;;;;3.43;100.00;100941.25;5065018;28;20036;-78
2022/12/30 04:08:19;;;;;;;12.07;3.20;;;;;;;3.40;100.00;100938.88;5061986;28;20036;-78
2022/12/30 04:10:44;;;;;;;10.27;2.70;;;;;;;3.42;100.00;100947.50;5064709;28;20009;-78
2022/12/30 04:13:09;;;;;;;10.05;2.67;;;;;;;3.42;100.00;100942.22;5060973;28;20097;-79
2022/12/30 04:15:35;;;;;;;6.72;2.95;;;;;;;3.41;100.00;100945.00;5063319;28;20054;-78
2022/12/30 04:18:00;;;;;;;9.00;3.53;;;;;;;3.40;100.00;100948.59;5063020;28;20036;-78
2022/12/30 04:20:25;;;;;;;9.55;4.90;;;;;;;3.38;100.00;100947.91;5059060;28;20029;-72
2022/12/30 04:22:51;;;;;;;10.77;2.70;;;;;;;3.36;100.00;100950.72;5053043;28;20072;-71
2022/12/30 04:25:16;;;;;;;8.55;2.33;;;;;;;3.37;100.00;100951.53;5067692;28;20070;-72
2022/12/30 04:27:42;;;;;;;11.98;3.13;;;;;;;3.33;100.00;100948.38;5072243;28;20495;-71
2022/12/30 04:30:07;;;;;;;9.18;2.67;;;;;;;3.37;100.00;100948.91;5053428;28;20032;-71
2022/12/30 04:32:33;;;;;;;13.63;2.80;;;;;;;3.29;100.00;100947.84;5071522;28;20028;-71
2022/12/30 04:34:58;;;;;;;10.45;3.38;;;;;;;3.33;100.00;100953.66;5071886;28;20375;-71
2022/12/30 04:37:24;;;;;;;9.43;2.55;;;;;;;3.43;100.00;100958.84;5071398;28;20139;-71
2022/12/30 04:39:49;;;;;;;13.25;3.90;;;;;;;3.44;100.00;100948.19;5071457;28;20024;-71
2022/12/30 04:42:14;;;;;;;12.23;2.20;;;;;;;3.48;100.00;100949.56;5071414;28;20043;-71
2022/12/30 04:44:40;;;;;;;11.55;3.40;;;;;;;3.50;100.00;100949.38;5053035;28;20036;-71
2022/12/30 04:47:05;;;;;;;16.17;2.85;;;;;;;3.49;100.00;100937.19;5071092;28;20032;-71
2022/12/30 04:49:30;;;;;;;10.02;2.83;;;;;;;3.51;100.00;100940.47;5053138;28;20052;-71
2022/12/30 04:51:56;;;;;;;13.60;2.88;;;;;;;3.54;100.00;100947.28;5071228;28;20052;-71
2022/12/30 04:54:21;;;;;;;10.20;2.80;;;;;;;3.54;100.00;100942.84;5071100;28;20032;-71
2022/12/30 04:56:46;;;;;;;14.07;3.53;;;;;;;3.55;100.00;100939.22;5053200;28;20033;-71
2022/12/30 04:59:12;;;;;;;11.85;3.65;;;;;;;3.57;100.00;100931.19;5071163;28;20086;-71
2022/12/30 05:01:37;;;;;;;11.48;5.57;;;;;;;3.58;100.00;100938.09;5071600;28;20052;-71
2022/12/30 05:04:02;;;;;;;7.15;1.85;;;;;;;3.56;100.00;100946.16;5071527;28;20071;-71
2022/12/30 05:06:28;;;;;;;12.10;3.28;;;;;;;3.54;100.00;100937.56;5034007;28;20028;-71
2022/12/30 05:08:53;;;;;;;6.63;2.05;;;;;;;3.58;100.00;100938.09;5052369;28;20494;-71
2022/12/30 05:11:18;;;;;;;9.82;2.35;;;;;;;3.55;100.00;100938.41;5052324;28;20036;-71
2022/12/30 05:13:44;;;;;;;10.77;3.28;;;;;;;3.55;100.00;100946.31;5052157;28;20049;-71
2022/12/30 05:16:09;;;;;;;12.52;3.83;;;;;;;3.54;100.00;100945.50;5051680;28;20495;-71
2022/12/30 05:18:34;;;;;;;11.38;2.95;;;;;;;3.53;100.00;100945.63;5034121;28;20082;-71
2022/12/30 05:21:00;;;;;;;16.60;4.63;;;;;;;3.49;100.00;100945.94;5051913;28;20064;-71
2022/12/30 05:26:15;;;;;;;17.10;4.00;;;;;;;3.48;100.00;100925.81;5052261;28;20068;-71
2022/12/30 05:28:41;;;;;;;9.85;2.63;;;;;;;3.46;100.00;100922.50;5051957;28;20060;-74
2022/12/30 05:31:07;;;;;;;9.02;2.65;;;;;;;3.48;100.00;100925.81;5051502;28;20033;-71
2022/12/30 05:33:32;;;;;;;8.82;2.00;;;;;;;3.48;100.00;100932.88;5050898;28;20505;-71
2022/12/30 05:35:57;;;;;;;11.98;5.15;;;;;;;3.45;100.00;100923.47;5051203;28;20025;-71
2022/12/30 05:38:23;;;;;;;14.75;2.40;;;;;;;3.51;100.00;100938.69;5051044;28;20429;-71
2022/12/30 05:40:50;;;;;;;15.20;4.38;;;;;;;3.47;100.00;100929.41;5050961;28;20061;-71
2022/12/30 05:43:16;;;;;;;8.88;2.53;;;;;;;3.45;100.00;100920.81;5064323;28;20056;-71
2022/12/30 05:45:41;;;;;;;8.68;3.92;;;;;;;3.50;100.00;100934.38;5052434;28;20119;-72
2022/12/30 05:48:06;;;;;;;10.32;2.75;;;;;;;3.50;100.00;100926.47;5069599;28;20438;-71
2022/12/30 05:50:32;;;;;;;6.03;2.20;;;;;;;3.49;100.00;100938.00;5051774;28;20056;-73
2022/12/30 05:52:57;;;;;;;19.67;4.82;;;;;;;3.48;100.00;100925.81;5069911;28;20048;-71
2022/12/30 05:55:22;;;;;;;10.98;3.28;;;;;;;3.48;100.00;100928.47;5069740;28;20028;-71
2022/12/30 05:57:48;;;;;;;5.43;2.80;;;;;;;3.48;100.00;100931.09;5069001;28;20665;-72
2022/12/30 06:00:13;;;;;;;13.82;4.15;;;;;;;3.52;100.00;100928.97;5069877;28;20099;-71
2022/12/30 06:02:39;;;;;;;8.57;3.10;;;;;;;3.46;100.00;100919.03;5070307;28;20056;-71
2022/12/30 06:05:05;;;;;;;9.98;3.03;;;;;;;3.45;100.00;100912.09;5035697;28;20400;-71
2022/12/30 06:07:30;;;;;;;9.80;2.33;;;;;;;3.51;100.00;100928.16;5067171;28;20033;-71
2022/12/30 06:09:56;;;;;;;15.45;3.83;;;;;;;3.49;100.00;100922.19;5033383;28;20024;-71
2022/12/30 06:12:21;;;;;;;10.75;3.40;;;;;;;3.52;100.00;100926.34;5051176;28;20086;-71
2022/12/30 06:14:46;;;;;;;10.95;2.58;;;;;;;3.52;100.00;100921.06;5051007;28;20506;-71
2022/12/30 06:17:12;;;;;;;9.63;2.33;;;;;;;3.53;100.00;100924.53;5050910;28;20041;-71
2022/12/30 06:19:37;;;;;;;6.68;2.50;;;;;;;3.51;100.00;100909.69;5039893;28;20028;-71
2022/12/30 06:22:02;;;;;;;17.55;5.63;;;;;;;3.51;100.00;100900.94;5070036;28;20131;-72
2022/12/30 06:24:28;;;;;;;10.48;3.38;;;;;;;3.49;100.00;100900.28;5052025;28;20068;-72
2022/12/30 06:26:53;;;;;;;12.23;3.13;;;;;;;3.47;100.00;100899.59;5035166;28;20407;-71
2022/12/30 06:29:18;;;;;;;8.35;4.30;;;;;;;3.51;100.00;100908.84;5069942;28;20071;-71
2022/12/30 06:31:44;;;;;;;20.88;5.20;;;;;;;3.43;100.00;100890.31;5051265;28;20039;-71
2022/12/30 06:34:09;;;;;;;14.30;3.88;;;;;;;3.46;100.00;100892.69;5051118;28;20028;-71
2022/12/30 06:36:34;;;;;;;9.40;2.90;;;;;;;3.48;100.00;100896.81;5068945;28;20490;-72
2022/12/30 06:39:00;;;;;;;10.10;3.08;;;;;;;3.45;100.00;100891.00;5068935;28;21038;-71
2022/12/30 06:41:25;;;;;;;13.07;3.85;;;;;;;3.45;100.00;100896.28;5051106;28;20085;-72
2022/12/30 06:43:50;;;;;;;14.77;2.63;;;;;;;3.48;100.00;100891.53;5069096;28;20134;-71
2022/12/30 06:46:16;;;;;;;10.25;3.30;;;;;;;3.47;100.00;100894.31;5068875;28;20376;-71
2022/12/30 06:48:41;;;;;;;9.35;2.92;;;;;;;3.47;100.00;100889.03;5068671;28;20123;-72
2022/12/30 06:51:07;;;;;;;12.98;5.55;;;;;;;3.45;100.00;100885.72;5050495;28;20045;-71
2022/12/30 06:53:32;;;;;;;12.27;2.78;;;;;;;3.47;100.00;100871.41;5035571;28;20040;-72
2022/12/30 06:55:58;;;;;;;11.93;3.30;;;;;;;3.43;100.00;100856.88;5049193;28;20525;-72
2022/12/30 06:58:23;;;;;;;8.15;3.67;;;;;;;3.47;100.00;100862.69;5031229;28;20511;-71
2022/12/30 07:00:49;;;;;;;10.75;2.80;;;;;;;3.45;100.00;100849.63;5048936;28;20044;-72
2022/12/30 07:03:15;;;;;;;12.27;2.90;;;;;;;3.51;100.00;100854.31;5050122;28;20025;-72
2022/12/30 07:05:40;;;;;;;12.35;4.15;;;;;;;3.50;100.00;100836.00;5050394;28;20044;-72
2022/12/30 07:08:05;;;;;;;11.52;4.18;;;;;;;3.55;100.00;100832.94;5032173;28;20028;-72
2022/12/30 07:10:32;;;;;;;13.43;3.53;;;;;;;3.53;100.00;100826.97;5050063;28;20501;-71
2022/12/30 07:12:58;;;;;;;11.48;3.20;;;;;;;3.57;100.00;100830.97;5032385;28;20051;-71
2022/12/30 07:15:23;;;;;;;5.85;2.42;;;;;;;3.56;100.00;100818.75;5050103;28;20468;-72
2022/12/30 07:17:49;;;;;;;13.05;2.85;;;;;;;3.53;100.00;100814.59;5032022;28;20125;-71
2022/12/30 07:20:15;;;;;;;6.50;3.95;;;;;;;3.54;100.00;100818.06;5050024;28;20051;-71
2022/12/30 07:22:41;;;;;;;9.05;3.50;;;;;;;3.47;100.00;100812.59;5031970;28;20040;-72
2022/12/30 07:25:07;;;;;;;11.15;3.67;;;;;;;3.52;100.00;100815.59;5049823;28;20021;-71
2022/12/30 07:27:32;;;;;;;13.48;4.45;;;;;;;3.51;100.00;100817.41;5049867;28;20502;-71
2022/12/30 07:29:57;;;;;;;10.90;2.72;;;;;;;3.51;100.00;100811.28;5050208;28;20175;-71
2022/12/30 07:32:23;;;;;;;14.68;5.20;;;;;;;3.56;100.00;100819.56;5049561;28;20360;-71
2022/12/30 07:34:48;;;;;;;8.38;3.70;;;;;;;3.60;100.00;100820.13;5030174;28;20035;-71
2022/12/30 07:37:14;;;;;;;8.32;3.03;;;;;;;3.63;100.00;100819.81;5049463;28;20029;-71
2022/12/30 07:39:39;;;;;;;10.57;4.00;;;;;;;3.66;100.00;100808.94;5031361;28;20033;-71
2022/12/30 07:42:04;;;;;;;11.32;4.03;;;;;;;3.68;100.00;100801.72;5049458;28;20037;-70
2022/12/30 07:44:30;;;;;;;14.98;3.25;;;;;;;3.72;100.00;100790.72;5031451;28;20025;-70
2022/12/30 07:46:55;;;;;;;9.85;3.10;;;;;;;3.74;100.00;100786.09;5049479;28;20033;-71
2022/12/30 07:49:21;;;;;;;11.73;3.17;;;;;;;3.77;100.00;100774.41;5049059;28;20472;-70
2022/12/30 07:51:46;;;;;;;10.68;3.60;;;;;;;3.79;100.00;100769.81;5048820;28;20434;-70
2022/12/30 07:54:12;;;;;;;6.97;2.42;;;;;;;3.84;100.00;100772.81;5048716;28;20049;-70
2022/12/30 07:56:37;;;;;;;6.97;2.90;;;;;;;3.82;100.00;100758.13;5030746;28;20032;-70
2022/12/30 07:59:03;;;;;;;9.20;3.60;;;;;;;3.87;100.00;100761.13;5030768;28;20043;-70
2022/12/30 08:01:28;;;;;;;7.47;3.03;;;;;;;3.88;100.00;100753.06;5048511;28;20028;-70
2022/12/30 08:03:53;;;;;;;13.32;3.42;;;;;;;3.90;100.00;100750.25;5048750;28;20541;-70
2022/12/30 08:06:19;;;;;;;7.32;2.88;;;;;;;3.93;100.00;100753.44;5031240;28;20080;-70
2022/12/30 08:08:45;;;;;;;12.75;3.30;;;;;;;3.98;100.00;100752.13;5049030;28;20472;-70
2022/12/30 08:11:12;;;;;;;10.98;2.83;;;;;;;3.99;100.00;100740.59;5048833;28;20462;-70
2022/12/30 08:13:41;;;;;;;6.93;2.63;;;;;;;4.06;100.00;100738.97;5048568;28;20056;-70
2022/12/30 08:16:08;;;;;;;4.72;2.28;;;;;;;4.02;100.00;100721.81;5048849;28;20025;-70
2022/12/30 08:18:34;;;;;;;8.18;4.47;;;;;;;4.06;100.00;100718.72;5030990;28;20079;-70
2022/12/30 08:21:01;;;;;;;9.02;2.20;;;;;;;4.16;100.00;100729.94;5051151;28;20037;-70
2022/12/30 08:23:28;;;;;;;9.75;3.40;;;;;;;4.24;100.00;100728.34;5052468;28;20553;-70
2022/12/30 08:25:53;;;;;;;8.02;3.33;;;;;;;4.23;100.00;100722.25;5032085;28;20468;-72
2022/12/30 08:28:19;;;;;;;12.50;2.83;;;;;;;4.31;100.00;100730.19;5043846;28;20032;-74
2022/12/30 08:30:44;;;;;;;7.10;2.92;;;;;;;4.35;100.00;100720.97;5037878;28;20139;-75
2022/12/30 08:33:09;;;;;;;7.32;2.15;;;;;;;4.43;100.00;100725.47;5019925;28;20110;-73
2022/12/30 08:35:35;;;;;;;6.25;2.03;;;;;;;4.47;100.00;100712.75;5037555;28;20476;-74
2022/12/30 08:38:00;;;;;;;7.90;2.92;;;;;;;4.56;100.00;100709.16;5036785;28;20039;-73
2022/12/30 08:40:25;;;;;;;5.43;2.80;;;;;;;4.61;100.00;100701.56;5044798;28;20126;-74
2022/12/30 08:42:51;;;;;;;7.95;2.58;;;;;;;4.67;100.00;100708.84;5012389;28;20061;-74
2022/12/30 08:45:17;;;;;;;12.30;4.03;;;;;;;4.70;100.00;100697.13;5039670;28;20025;-72
2022/12/30 08:47:42;;;;;;;9.02;2.95;;;;;;;4.76;100.00;100696.47;5013127;28;20488;-73
2022/12/30 08:50:08;;;;;;;5.80;2.67;;;;;;;4.80;100.00;100666.94;5012097;28;20039;-73
2022/12/30 08:52:33;;;;;;;8.38;2.85;;;;;;;4.93;100.00;100663.00;5027139;28;20053;-73
2022/12/30 08:54:58;;;;;;;8.73;2.35;;;;;;;5.01;100.00;100674.38;5038418;28;20037;-71
2022/12/30 08:57:24;;;;;;;9.27;3.17;;;;;;;5.07;100.00;100672.06;5039802;28;20519;-73
2022/12/30 08:59:49;;;;;;;9.57;3.38;;;;;;;5.13;100.00;100666.13;5025522;28;20171;-74
2022/12/30 09:02:14;;;;;;;7.93;2.53;;;;;;;5.19;100.00;100668.13;5036364;28;20033;-74
2022/12/30 09:04:40;;;;;;;7.22;2.35;;;;;;;5.24;100.00;100663.16;5039676;28;20065;-74
2022/12/30 09:07:06;;;;;;;9.00;2.53;;;;;;;5.29;100.00;100663.47;5035334;28;20088;-73
2022/12/30 09:09:32;;;;;;;8.35;2.78;;;;;;;5.37;100.00;100649.41;5041560;28;20029;-73
2022/12/30 09:11:57;;;;;;;3.45;1.48;;;;;;;5.42;100.00;100649.72;5043630;28;20028;-73
2022/12/30 09:14:23;;;;;;;2.65;1.58;;;;;;;5.47;100.00;100658.81;5038269;28;20068;-74
2022/12/30 09:16:49;;;;;;;3.47;1.98;;;;;;;5.54;100.00;100658.97;5042850;28;20028;-74
2022/12/30 09:19:15;;;;;;;10.05;2.70;;;;;;;5.60;100.00;100652.19;5044494;28;20052;-74
2022/12/30 09:21:41;;;;;;;7.35;1.67;;;;;;;5.67;100.00;100639.94;5044502;28;20124;-73
2022/12/30 09:24:06;;;;;;;4.90;2.28;;;;;;;5.72;100.00;100641.06;5040788;28;20116;-73
2022/12/30 09:26:32;;;;;;;4.20;1.67;;;;;;;5.75;100.00;100628.50;5036007;28;21148;-72
2022/12/30 09:28:58;;;;;;;7.18;2.42;;;;;;;5.77;100.00;100621.22;5026372;28;20035;-72
2022/12/30 09:31:24;;;;;;;5.63;2.95;;;;;;;5.83;100.00;100623.19;5042323;28;20021;-72
2022/12/30 09:33:50;;;;;;;5.95;1.45;;;;;;;5.92;100.00;100624.78;5038219;28;20028;-73
2022/12/30 09:36:15;;;;;;;5.60;1.42;;;;;;;6.01;100.00;100628.25;5033609;28;20618;-73
2022/12/30 09:38:41;;;;;;;9.90;1.58;;;;;;;6.05;100.00;100622.47;5039524;28;20052;-72
2022/12/30 09:44:35;;;;;;;1.90;1.50;;;;;;;6.17;100.00;100619.41;4970991;28;20024;-74
2022/12/30 09:47:16;;;;;;;4.55;2.10;;;;;;;6.18;100.00;100602.53;5040080;28;20064;-74
2022/12/30 09:49:47;;;;;;;2.47;1.73;;;;;;;6.27;100.00;100606.78;5049186;28;20063;-73
2022/12/30 09:52:19;;;;;;;;;;;;;;;6.33;100.00;100614.03;5011758;28;1311557;-73
2022/12/30 09:55:00;;;;;;;5.47;1.63;;;;;;;6.33;100.00;100601.59;5070575;28;19974;-73
2022/12/30 09:57:31;;;;;;;5.40;2.07;;;;;;;6.35;100.00;100591.66;5070349;28;20024;-73
2022/12/30 10:00:14;;;;;;;7.38;1.75;;;;;;;6.38;100.00;100601.09;5066345;28;20082;-73
2022/12/30 10:02:46;;;;;;;5.25;1.90;;;;;;;6.39;100.00;100593.94;5068510;28;20042;-73
2022/12/30 10:05:12;;;;;;;2.95;1.77;;;;;;;6.41;100.00;100584.84;5070119;28;20028;-72
2022/12/30 10:07:41;;;;;;;4.65;1.88;;;;;;;6.42;100.00;100567.09;5070256;28;20036;-73
2022/12/30 10:10:14;;;;;;;4.55;1.77;;;;;;;6.42;100.00;100545.91;5070118;28;20025;-73
2022/12/30 10:13:09;;;;;;;6.68;2.85;;;;;;;6.49;100.00;100552.97;5070082;28;20086;-73
2022/12/30 10:16:16;;;;;;;5.90;1.50;;;;;;;6.53;100.00;100545.53;5052158;28;20037;-73
2022/12/30 10:19:10;;;;;;;4.38;2.25;;;;;;;6.55;100.00;100540.88;5069583;28;20040;-73
2022/12/30 10:21:58;;;;;;;3.97;1.80;;;;;;;6.59;100.00;100540.31;5069873;28;20035;-73
2022/12/30 10:24:57;;;;;;;4.20;2.00;;;;;;;6.61;100.00;100531.38;5069758;28;20039;-73
2022/12/30 10:27:44;;;;;;;5.93;1.90;;;;;;;6.65;100.00;100524.72;5051705;28;20020;-73
2022/12/30 10:30:28;;;;;;;8.57;1.85;;;;;;;6.67;100.00;100520.88;5069945;28;20028;-73
2022/12/30 10:33:00;;;;;;;8.60;2.60;;;;;;;6.68;100.00;100503.16;5041524;28;20071;-73
2022/12/30 10:35:30;;;;;;;5.60;2.08;;;;;;;6.64;100.00;100497.41;5037113;28;20514;-73
2022/12/30 10:38:08;;;;;;;5.80;1.90;;;;;;;6.76;100.00;100503.09;5068856;28;20489;-73
2022/12/30 10:41:01;;;;;;;3.28;1.33;;;;;;;6.77;100.00;100484.34;5060321;28;20025;-73
2022/12/30 10:43:55;;;;;;;6.35;2.25;;;;;;;6.81;100.00;100476.84;5017284;28;20047;-73
2022/12/30 10:46:45;;;;;;;4.47;1.35;;;;;;;6.83;100.00;100461.59;5031684;28;20139;-73
2022/12/30 10:49:58;;;;;;;9.18;1.88;;;;;;;6.80;100.00;100438.94;5044457;28;20498;-73
2022/12/30 10:52:25;;;;;;;4.05;1.75;;;;;;;6.87;100.00;100436.38;4986133;28;20079;-73
2022/12/30 10:54:50;;;;;;;1.85;1.35;;;;;;;6.90;100.00;100429.88;5049928;28;20475;-73
2022/12/30 10:57:33;;;;;;;4.47;2.17;;;;;;;6.93;100.00;100403.81;5049714;28;20056;-73
2022/12/30 11:00:00;;;;;;;5.10;0.90;;;;;;;6.94;100.00;100397.53;5049705;28;20039;-73
2022/12/30 11:02:31;;;;;;;3.55;1.30;;;;;;;6.99;100.00;100402.25;5049512;28;20037;-73
2022/12/30 11:04:59;;;;;;;5.07;1.80;;;;;;;6.98;100.00;100388.19;5049784;28;20057;-73
2022/12/30 11:07:25;;;;;;;3.13;1.23;;;;;;;7.02;100.00;100372.72;5049801;28;20037;-72
2022/12/30 11:09:50;;;;;;;1.48;1.20;;;;;;;7.06;100.00;100357.28;5049661;28;20031;-73
2022/12/30 11:15:06;;;;;;;6.65;1.48;;;;;;;7.13;100.00;100356.34;5049746;28;20136;-73
2022/12/30 11:17:46;;;;;;;6.25;1.33;;;;;;;7.12;100.00;100338.78;5031566;28;20097;-73
2022/12/30 11:20:14;;;;;;;3.92;1.33;;;;;;;7.19;100.00;100336.22;5049368;28;20043;-73
2022/12/30 11:22:51;;;;;;;5.15;1.75;;;;;;;7.22;100.00;100330.53;5049292;28;20043;-73
2022/12/30 11:25:42;;;;;;;5.85;2.67;;;;;;;7.22;100.00;100322.59;5049370;28;20617;-73
2022/12/30 11:28:57;;;;;;;4.25;2.38;;;;;;;7.21;100.00;100313.00;5049325;28;20037;-73
2022/12/30 11:31:33;;;;;;;3.78;1.23;;;;;;;7.16;100.00;100296.81;5018626;28;20043;-73
2022/12/30 11:34:02;;;;;;;17.30;2.10;;;;;;;7.13;100.00;100291.91;5049327;28;20048;-73
2022/12/30 11:36:27;;;;;;;5.63;1.92;;;;;;;7.20;100.00;100290.97;5049216;28;20036;-74
2022/12/30 11:38:53;;;;;;;5.68;1.77;;;;;;;7.22;100.00;100280.97;5049247;28;20043;-73
2022/12/30 11:41:18;;;;;;;8.55;2.65;;;;;;;7.22;100.00;100275.66;5049290;28;20617;-73
2022/12/30 11:43:56;;;;;;;7.20;2.13;;;;;;;7.26;100.00;100262.88;5049364;28;20103;-73
2022/12/30 11:46:27;;;;;;;3.70;1.80;;;;;;;7.32;100.00;100250.66;5049176;28;20498;-73
2022/12/30 11:48:56;;;;;;;7.53;2.97;;;;;;;7.31;100.00;100233.09;5049161;28;20021;-73
2022/12/30 11:51:25;;;;;;;7.13;1.98;;;;;;;7.35;100.00;100224.56;5049174;28;20415;-73
2022/12/30 11:54:01;;;;;;;2.55;1.40;;;;;;;7.45;100.00;100222.41;5049027;28;20439;-73
2022/12/30 11:56:27;;;;;;;3.20;1.42;;;;;;;7.54;100.00;100230.22;5052400;28;20025;-73
2022/12/30 11:58:53;;;;;;;2.40;1.55;;;;;;;7.60;100.00;100222.34;5053097;28;20032;-72
2022/12/30 12:01:19;;;;;;;4.57;1.45;;;;;;;7.60;100.00;100209.06;5035089;28;20039;-73
2022/12/30 12:04:29;;;;;;;7.15;1.52;;;;;;;7.68;100.00;100205.44;5035166;28;20112;-72
2022/12/30 12:06:56;;;;;;;7.82;1.70;;;;;;;7.74;100.00;100195.88;5052922;28;20036;-72
2022/12/30 12:09:44;;;;;;;3.63;1.52;;;;;;;7.75;100.00;100173.63;5052873;28;20029;-72
2022/12/30 12:12:18;;;;;;;10.52;1.65;;;;;;;7.79;100.00;100172.25;4995037;28;20017;-74
2022/12/30 12:14:46;;;;;;;8.88;2.63;;;;;;;7.80;100.00;100147.31;5047263;28;20430;-73
2022/12/30 12:17:18;;;;;;;9.98;2.58;;;;;;;7.86;100.00;100158.00;5047065;28;20055;-74
2022/12/30 12:19:58;;;;;;;9.55;1.40;;;;;;;7.89;100.00;100152.28;5047155;28;20063;-74
2022/12/30 12:22:45;;;;;;;5.70;2.38;;;;;;;7.94;100.00;100133.13;5046735;28;20013;-73
2022/12/30 12:25:20;;;;;;;5.72;1.70;;;;;;;7.92;100.00;100124.53;5028589;28;20455;-74
2022/12/30 12:27:51;;;;;;;4.03;1.33;;;;;;;7.97;100.00;100121.28;5046615;28;20016;-72
2022/12/30 12:30:18;;;;;;;7.75;2.15;;;;;;;8.00;100.00;100119.03;5046310;28;20025;-73
2022/12/30 12:32:43;;;;;;;6.05;1.73;;;;;;;8.00;100.00;100115.56;5045896;28;20107;-73